sensor_id;sensor_type;location;lat;lon;timestamp;P1;durP1;ratioP1;P2;durP2;ratioP2
71975;SDS011;68326;52.124;5.424;2023-05-10T00:00:11;13.70;;;6.80;;
71975;SDS011;68326;52.124;5.424;2023-05-10T00:02:38;10.60;;;5.30;;
71975;SDS011;68326;52.124;5.424;2023-05-10T00:05:05;11.38;;;5.28;;
71975;SDS011;68326;52.124;5.424;2023-05-10T00:07:32;11.27;;;5.87;;
71975;SDS011;68326;52.124;5.424;2023-05-10T00:09:59;10.05;;;5.20;;
71975;SDS011;68326;52.124;5.424;2023-05-10T00:12:25;11.90;;;5.57;;
71975;SDS011;68326;52.124;5.424;2023-05-10T00:14:52;10.25;;;5.57;;
71975;SDS011;68326;52.124;5.424;2023-05-10T00:17:18;12.07;;;6.20;;
71975;SDS011;68326;52.124;5.424;2023-05-10T00:19:44;14.53;;;7.50;;
71975;SDS011;68326;52.124;5.424;2023-05-10T00:22:11;14.70;;;6.80;;
71975;SDS011;68326;52.124;5.424;2023-05-10T00:24:37;11.55;;;5.97;;
71975;SDS011;68326;52.124;5.424;2023-05-10T00:27:04;14.98;;;6.35;;
71975;SDS011;68326;52.124;5.424;2023-05-10T00:29:30;16.30;;;7.45;;
71975;SDS011;68326;52.124;5.424;2023-05-10T00:31:57;15.33;;;7.80;;
71975;SDS011;68326;52.124;5.424;2023-05-10T00:34:24;19.55;;;8.50;;
71975;SDS011;68326;52.124;5.424;2023-05-10T00:36:50;21.02;;;9.80;;
71975;SDS011;68326;52.124;5.424;2023-05-10T00:39:17;18.70;;;9.35;;
71975;SDS011;68326;52.124;5.424;2023-05-10T00:41:43;26.27;;;10.82;;
71975;SDS011;68326;52.124;5.424;2023-05-10T00:44:10;28.23;;;11.13;;
71975;SDS011;68326;52.124;5.424;2023-05-10T00:46:36;28.42;;;10.98;;
71975;SDS011;68326;52.124;5.424;2023-05-10T00:49:03;23.35;;;10.48;;
71975;SDS011;68326;52.124;5.424;2023-05-10T00:51:30;26.25;;;11.77;;
71975;SDS011;68326;52.124;5.424;2023-05-10T00:53:57;33.60;;;14.25;;
71975;SDS011;68326;52.124;5.424;2023-05-10T00:56:25;32.10;;;13.60;;
71975;SDS011;68326;52.124;5.424;2023-05-10T00:58:51;34.03;;;14.35;;
71975;SDS011;68326;52.124;5.424;2023-05-10T01:01:18;35.50;;;14.73;;
71975;SDS011;68326;52.124;5.424;2023-05-10T01:03:45;38.25;;;15.23;;
71975;SDS011;68326;52.124;5.424;2023-05-10T01:06:13;39.75;;;15.63;;
71975;SDS011;68326;52.124;5.424;2023-05-10T01:08:39;35.43;;;14.73;;
71975;SDS011;68326;52.124;5.424;2023-05-10T01:11:06;37.35;;;15.27;;
71975;SDS011;68326;52.124;5.424;2023-05-10T01:13:34;35.72;;;14.35;;
71975;SDS011;68326;52.124;5.424;2023-05-10T01:16:03;33.47;;;14.32;;
71975;SDS011;68326;52.124;5.424;2023-05-10T01:18:31;38.90;;;15.57;;
71975;SDS011;68326;52.124;5.424;2023-05-10T01:21:04;35.70;;;15.37;;
71975;SDS011;68326;52.124;5.424;2023-05-10T01:32:07;32.05;;;13.70;;
71975;SDS011;68326;52.124;5.424;2023-05-10T01:34:35;36.40;;;14.87;;
71975;SDS011;68326;52.124;5.424;2023-05-10T01:37:15;37.00;;;13.90;;
71975;SDS011;68326;52.124;5.424;2023-05-10T01:42:53;35.40;;;13.75;;
71975;SDS011;68326;52.124;5.424;2023-05-10T01:45:31;41.20;;;14.25;;
71975;SDS011;68326;52.124;5.424;2023-05-10T01:48:06;36.87;;;13.87;;
71975;SDS011;68326;52.124;5.424;2023-05-10T01:50:36;40.58;;;14.13;;
71975;SDS011;68326;52.124;5.424;2023-05-10T01:53:07;37.03;;;14.00;;
71975;SDS011;68326;52.124;5.424;2023-05-10T01:55:51;34.63;;;13.85;;
71975;SDS011;68326;52.124;5.424;2023-05-10T01:58:21;39.03;;;14.60;;
71975;SDS011;68326;52.124;5.424;2023-05-10T02:00:51;37.90;;;14.10;;
71975;SDS011;68326;52.124;5.424;2023-05-10T02:03:23;37.65;;;15.02;;
71975;SDS011;68326;52.124;5.424;2023-05-10T02:05:51;40.53;;;14.65;;
71975;SDS011;68326;52.124;5.424;2023-05-10T02:08:20;38.55;;;14.15;;
71975;SDS011;68326;52.124;5.424;2023-05-10T02:10:49;38.75;;;15.27;;
71975;SDS011;68326;52.124;5.424;2023-05-10T02:13:18;33.67;;;13.30;;
71975;SDS011;68326;52.124;5.424;2023-05-10T02:15:48;36.60;;;14.50;;
71975;SDS011;68326;52.124;5.424;2023-05-10T02:18:17;34.75;;;14.38;;
71975;SDS011;68326;52.124;5.424;2023-05-10T02:20:45;36.72;;;14.35;;
71975;SDS011;68326;52.124;5.424;2023-05-10T02:23:13;38.47;;;14.85;;
71975;SDS011;68326;52.124;5.424;2023-05-10T02:25:41;38.87;;;14.17;;
71975;SDS011;68326;52.124;5.424;2023-05-10T02:28:09;35.38;;;14.80;;
71975;SDS011;68326;52.124;5.424;2023-05-10T02:30:37;40.70;;;15.43;;
71975;SDS011;68326;52.124;5.424;2023-05-10T02:33:04;35.67;;;13.98;;
71975;SDS011;68326;52.124;5.424;2023-05-10T02:35:31;38.40;;;15.23;;
71975;SDS011;68326;52.124;5.424;2023-05-10T02:37:59;37.03;;;14.17;;
71975;SDS011;68326;52.124;5.424;2023-05-10T02:40:27;40.85;;;15.35;;
71975;SDS011;68326;52.124;5.424;2023-05-10T02:42:54;39.15;;;14.68;;
71975;SDS011;68326;52.124;5.424;2023-05-10T02:45:23;36.17;;;14.02;;
71975;SDS011;68326;52.124;5.424;2023-05-10T02:47:52;39.65;;;15.45;;
71975;SDS011;68326;52.124;5.424;2023-05-10T02:50:19;40.83;;;15.87;;
71975;SDS011;68326;52.124;5.424;2023-05-10T02:52:47;40.70;;;15.73;;
71975;SDS011;68326;52.124;5.424;2023-05-10T02:55:19;37.55;;;14.65;;
71975;SDS011;68326;52.124;5.424;2023-05-10T02:57:50;40.13;;;15.07;;
71975;SDS011;68326;52.124;5.424;2023-05-10T03:00:23;39.28;;;15.75;;
71975;SDS011;68326;52.124;5.424;2023-05-10T03:02:50;38.90;;;15.03;;
71975;SDS011;68326;52.124;5.424;2023-05-10T03:05:17;43.42;;;15.60;;
71975;SDS011;68326;52.124;5.424;2023-05-10T03:07:45;46.15;;;15.63;;
71975;SDS011;68326;52.124;5.424;2023-05-10T03:10:12;48.80;;;16.23;;
71975;SDS011;68326;52.124;5.424;2023-05-10T03:12:47;51.03;;;17.95;;
71975;SDS011;68326;52.124;5.424;2023-05-10T03:20:37;50.63;;;16.45;;
71975;SDS011;68326;52.124;5.424;2023-05-10T03:23:11;51.10;;;15.90;;
71975;SDS011;68326;52.124;5.424;2023-05-10T03:25:46;52.83;;;16.63;;
71975;SDS011;68326;52.124;5.424;2023-05-10T03:28:14;52.73;;;17.33;;
71975;SDS011;68326;52.124;5.424;2023-05-10T03:30:42;58.28;;;17.58;;
71975;SDS011;68326;52.124;5.424;2023-05-10T03:33:09;59.53;;;17.25;;
71975;SDS011;68326;52.124;5.424;2023-05-10T03:35:36;54.58;;;16.90;;
71975;SDS011;68326;52.124;5.424;2023-05-10T03:38:03;53.45;;;15.52;;
71975;SDS011;68326;52.124;5.424;2023-05-10T03:40:29;57.37;;;16.70;;
71975;SDS011;68326;52.124;5.424;2023-05-10T03:42:58;56.95;;;17.23;;
71975;SDS011;68326;52.124;5.424;2023-05-10T03:45:25;53.78;;;16.00;;
71975;SDS011;68326;52.124;5.424;2023-05-10T03:47:52;56.17;;;16.27;;
71975;SDS011;68326;52.124;5.424;2023-05-10T03:50:20;50.85;;;16.58;;
71975;SDS011;68326;52.124;5.424;2023-05-10T03:52:47;60.17;;;17.40;;
71975;SDS011;68326;52.124;5.424;2023-05-10T03:55:13;57.30;;;17.00;;
71975;SDS011;68326;52.124;5.424;2023-05-10T03:57:40;54.75;;;16.80;;
71975;SDS011;68326;52.124;5.424;2023-05-10T04:00:07;58.33;;;17.00;;
71975;SDS011;68326;52.124;5.424;2023-05-10T04:02:34;55.13;;;16.70;;
71975;SDS011;68326;52.124;5.424;2023-05-10T04:05:01;53.80;;;16.17;;
71975;SDS011;68326;52.124;5.424;2023-05-10T04:07:27;52.28;;;16.48;;
71975;SDS011;68326;52.124;5.424;2023-05-10T04:09:54;52.75;;;16.25;;
71975;SDS011;68326;52.124;5.424;2023-05-10T04:12:20;55.90;;;17.08;;
71975;SDS011;68326;52.124;5.424;2023-05-10T04:14:46;52.90;;;16.25;;
71975;SDS011;68326;52.124;5.424;2023-05-10T04:17:13;47.30;;;15.23;;
71975;SDS011;68326;52.124;5.424;2023-05-10T04:19:40;47.60;;;14.80;;
71975;SDS011;68326;52.124;5.424;2023-05-10T04:22:06;46.88;;;16.25;;
71975;SDS011;68326;52.124;5.424;2023-05-10T04:24:32;51.60;;;17.13;;
71975;SDS011;68326;52.124;5.424;2023-05-10T04:26:59;49.95;;;15.38;;
71975;SDS011;68326;52.124;5.424;2023-05-10T04:29:25;45.80;;;15.80;;
71975;SDS011;68326;52.124;5.424;2023-05-10T04:31:52;47.78;;;14.65;;
71975;SDS011;68326;52.124;5.424;2023-05-10T04:34:20;52.15;;;15.95;;
71975;SDS011;68326;52.124;5.424;2023-05-10T04:36:47;50.03;;;15.95;;
71975;SDS011;68326;52.124;5.424;2023-05-10T04:39:13;49.72;;;15.82;;
71975;SDS011;68326;52.124;5.424;2023-05-10T04:41:40;45.70;;;14.57;;
71975;SDS011;68326;52.124;5.424;2023-05-10T04:44:06;51.72;;;16.50;;
71975;SDS011;68326;52.124;5.424;2023-05-10T04:46:33;47.88;;;15.82;;
71975;SDS011;68326;52.124;5.424;2023-05-10T04:48:59;47.42;;;16.42;;
71975;SDS011;68326;52.124;5.424;2023-05-10T04:51:25;50.45;;;16.65;;
71975;SDS011;68326;52.124;5.424;2023-05-10T04:53:52;46.17;;;15.30;;
71975;SDS011;68326;52.124;5.424;2023-05-10T04:56:31;47.72;;;15.65;;
71975;SDS011;68326;52.124;5.424;2023-05-10T04:58:58;50.55;;;14.65;;
71975;SDS011;68326;52.124;5.424;2023-05-10T05:01:24;45.58;;;15.90;;
71975;SDS011;68326;52.124;5.424;2023-05-10T05:03:51;48.55;;;15.25;;
71975;SDS011;68326;52.124;5.424;2023-05-10T05:06:19;46.77;;;14.97;;
71975;SDS011;68326;52.124;5.424;2023-05-10T05:08:47;53.97;;;16.08;;
71975;SDS011;68326;52.124;5.424;2023-05-10T05:11:15;53.42;;;16.23;;
71975;SDS011;68326;52.124;5.424;2023-05-10T05:13:42;50.10;;;16.40;;
71975;SDS011;68326;52.124;5.424;2023-05-10T05:16:09;46.22;;;15.05;;
71975;SDS011;68326;52.124;5.424;2023-05-10T05:18:37;46.47;;;15.53;;
71975;SDS011;68326;52.124;5.424;2023-05-10T05:21:03;50.78;;;16.38;;
71975;SDS011;68326;52.124;5.424;2023-05-10T05:23:39;53.90;;;16.60;;
71975;SDS011;68326;52.124;5.424;2023-05-10T05:26:06;48.22;;;15.82;;
71975;SDS011;68326;52.124;5.424;2023-05-10T05:28:32;52.58;;;16.75;;
71975;SDS011;68326;52.124;5.424;2023-05-10T05:31:03;52.73;;;16.33;;
71975;SDS011;68326;52.124;5.424;2023-05-10T05:33:31;56.70;;;17.10;;
71975;SDS011;68326;52.124;5.424;2023-05-10T05:35:57;54.90;;;16.77;;
71975;SDS011;68326;52.124;5.424;2023-05-10T05:38:26;55.17;;;17.63;;
71975;SDS011;68326;52.124;5.424;2023-05-10T05:40:53;54.13;;;16.80;;
71975;SDS011;68326;52.124;5.424;2023-05-10T05:43:19;52.10;;;16.63;;
71975;SDS011;68326;52.124;5.424;2023-05-10T05:45:46;56.35;;;18.25;;
71975;SDS011;68326;52.124;5.424;2023-05-10T05:48:12;48.30;;;16.85;;
71975;SDS011;68326;52.124;5.424;2023-05-10T05:50:39;57.38;;;16.73;;
71975;SDS011;68326;52.124;5.424;2023-05-10T05:53:05;43.97;;;16.42;;
71975;SDS011;68326;52.124;5.424;2023-05-10T05:55:32;36.43;;;14.20;;
71975;SDS011;68326;52.124;5.424;2023-05-10T05:57:58;43.55;;;17.05;;
71975;SDS011;68326;52.124;5.424;2023-05-10T06:00:25;51.45;;;16.58;;
71975;SDS011;68326;52.124;5.424;2023-05-10T06:02:52;49.53;;;16.50;;
71975;SDS011;68326;52.124;5.424;2023-05-10T06:05:18;46.90;;;15.57;;
71975;SDS011;68326;52.124;5.424;2023-05-10T06:07:46;40.47;;;13.63;;
71975;SDS011;68326;52.124;5.424;2023-05-10T06:10:12;39.38;;;13.63;;
71975;SDS011;68326;52.124;5.424;2023-05-10T06:12:39;42.47;;;14.98;;
71975;SDS011;68326;52.124;5.424;2023-05-10T06:15:05;38.85;;;14.10;;
71975;SDS011;68326;52.124;5.424;2023-05-10T06:17:32;42.58;;;14.50;;
71975;SDS011;68326;52.124;5.424;2023-05-10T06:19:59;38.50;;;13.73;;
71975;SDS011;68326;52.124;5.424;2023-05-10T06:22:25;41.40;;;15.35;;
71975;SDS011;68326;52.124;5.424;2023-05-10T06:24:52;38.33;;;14.18;;
71975;SDS011;68326;52.124;5.424;2023-05-10T06:27:18;43.97;;;15.63;;
71975;SDS011;68326;52.124;5.424;2023-05-10T06:29:45;36.72;;;14.82;;
71975;SDS011;68326;52.124;5.424;2023-05-10T06:32:11;36.80;;;13.67;;
71975;SDS011;68326;52.124;5.424;2023-05-10T06:34:38;36.67;;;14.07;;
71975;SDS011;68326;52.124;5.424;2023-05-10T06:37:04;38.47;;;12.77;;
71975;SDS011;68326;52.124;5.424;2023-05-10T06:39:30;36.13;;;12.25;;
71975;SDS011;68326;52.124;5.424;2023-05-10T06:41:57;32.17;;;12.30;;
71975;SDS011;68326;52.124;5.424;2023-05-10T06:44:23;32.27;;;11.70;;
71975;SDS011;68326;52.124;5.424;2023-05-10T06:46:50;36.45;;;11.75;;
71975;SDS011;68326;52.124;5.424;2023-05-10T06:49:17;32.33;;;11.05;;
71975;SDS011;68326;52.124;5.424;2023-05-10T06:51:43;31.55;;;11.35;;
71975;SDS011;68326;52.124;5.424;2023-05-10T06:54:11;32.25;;;10.73;;
71975;SDS011;68326;52.124;5.424;2023-05-10T06:56:37;28.07;;;10.43;;
71975;SDS011;68326;52.124;5.424;2023-05-10T06:59:04;30.02;;;10.27;;
71975;SDS011;68326;52.124;5.424;2023-05-10T07:01:30;25.10;;;9.57;;
71975;SDS011;68326;52.124;5.424;2023-05-10T07:03:57;25.33;;;8.98;;
71975;SDS011;68326;52.124;5.424;2023-05-10T07:06:23;20.85;;;8.52;;
71975;SDS011;68326;52.124;5.424;2023-05-10T07:08:59;23.00;;;7.90;;
71975;SDS011;68326;52.124;5.424;2023-05-10T07:11:26;24.35;;;8.10;;
71975;SDS011;68326;52.124;5.424;2023-05-10T07:13:52;18.40;;;7.55;;
71975;SDS011;68326;52.124;5.424;2023-05-10T07:16:19;16.77;;;7.00;;
71975;SDS011;68326;52.124;5.424;2023-05-10T07:18:45;20.85;;;8.15;;
71975;SDS011;68326;52.124;5.424;2023-05-10T07:21:12;18.27;;;6.73;;
71975;SDS011;68326;52.124;5.424;2023-05-10T07:23:38;18.05;;;6.53;;
71975;SDS011;68326;52.124;5.424;2023-05-10T07:26:05;16.75;;;6.20;;
71975;SDS011;68326;52.124;5.424;2023-05-10T07:28:31;14.65;;;6.05;;
71975;SDS011;68326;52.124;5.424;2023-05-10T07:30:58;15.68;;;6.03;;
71975;SDS011;68326;52.124;5.424;2023-05-10T07:33:24;14.80;;;6.23;;
71975;SDS011;68326;52.124;5.424;2023-05-10T07:35:51;15.63;;;5.75;;
71975;SDS011;68326;52.124;5.424;2023-05-10T07:38:17;15.13;;;5.70;;
71975;SDS011;68326;52.124;5.424;2023-05-10T07:40:44;16.98;;;6.53;;
71975;SDS011;68326;52.124;5.424;2023-05-10T07:43:10;15.07;;;6.57;;
71975;SDS011;68326;52.124;5.424;2023-05-10T07:45:37;19.30;;;6.20;;
71975;SDS011;68326;52.124;5.424;2023-05-10T07:48:03;17.48;;;6.65;;
71975;SDS011;68326;52.124;5.424;2023-05-10T07:50:30;14.68;;;6.38;;
71975;SDS011;68326;52.124;5.424;2023-05-10T07:52:56;14.32;;;6.40;;
71975;SDS011;68326;52.124;5.424;2023-05-10T07:55:23;18.70;;;6.75;;
71975;SDS011;68326;52.124;5.424;2023-05-10T07:57:49;14.47;;;6.00;;
71975;SDS011;68326;52.124;5.424;2023-05-10T08:00:17;15.35;;;5.82;;
71975;SDS011;68326;52.124;5.424;2023-05-10T08:02:44;12.27;;;5.25;;
71975;SDS011;68326;52.124;5.424;2023-05-10T08:05:11;15.50;;;5.85;;
71975;SDS011;68326;52.124;5.424;2023-05-10T08:07:38;14.48;;;5.95;;
71975;SDS011;68326;52.124;5.424;2023-05-10T08:10:04;13.00;;;5.60;;
71975;SDS011;68326;52.124;5.424;2023-05-10T08:12:31;14.15;;;5.38;;
71975;SDS011;68326;52.124;5.424;2023-05-10T08:14:58;11.35;;;4.78;;
71975;SDS011;68326;52.124;5.424;2023-05-10T08:17:24;12.20;;;5.03;;
71975;SDS011;68326;52.124;5.424;2023-05-10T08:19:51;12.32;;;5.53;;
71975;SDS011;68326;52.124;5.424;2023-05-10T08:22:17;12.57;;;5.80;;
71975;SDS011;68326;52.124;5.424;2023-05-10T08:24:44;15.90;;;6.95;;
71975;SDS011;68326;52.124;5.424;2023-05-10T08:27:10;14.02;;;5.85;;
71975;SDS011;68326;52.124;5.424;2023-05-10T08:29:37;12.95;;;6.15;;
71975;SDS011;68326;52.124;5.424;2023-05-10T08:32:15;13.88;;;6.20;;
71975;SDS011;68326;52.124;5.424;2023-05-10T08:34:42;15.27;;;6.33;;
71975;SDS011;68326;52.124;5.424;2023-05-10T08:37:08;14.80;;;5.90;;
71975;SDS011;68326;52.124;5.424;2023-05-10T08:39:35;13.90;;;5.70;;
71975;SDS011;68326;52.124;5.424;2023-05-10T08:42:03;16.63;;;6.45;;
71975;SDS011;68326;52.124;5.424;2023-05-10T08:44:31;14.80;;;6.15;;
71975;SDS011;68326;52.124;5.424;2023-05-10T08:47:00;17.67;;;6.27;;
71975;SDS011;68326;52.124;5.424;2023-05-10T08:49:31;14.38;;;5.97;;
71975;SDS011;68326;52.124;5.424;2023-05-10T08:51:59;14.60;;;6.65;;
71975;SDS011;68326;52.124;5.424;2023-05-10T08:54:30;14.32;;;6.40;;
71975;SDS011;68326;52.124;5.424;2023-05-10T08:56:58;13.02;;;6.25;;
71975;SDS011;68326;52.124;5.424;2023-05-10T08:59:24;15.87;;;6.50;;
71975;SDS011;68326;52.124;5.424;2023-05-10T09:01:51;17.08;;;6.53;;
71975;SDS011;68326;52.124;5.424;2023-05-10T09:04:20;13.68;;;6.15;;
71975;SDS011;68326;52.124;5.424;2023-05-10T09:06:47;13.20;;;6.22;;
71975;SDS011;68326;52.124;5.424;2023-05-10T09:09:14;14.35;;;6.28;;
71975;SDS011;68326;52.124;5.424;2023-05-10T09:11:42;13.97;;;6.67;;
71975;SDS011;68326;52.124;5.424;2023-05-10T09:14:09;11.07;;;5.45;;
71975;SDS011;68326;52.124;5.424;2023-05-10T09:16:36;11.23;;;5.13;;
71975;SDS011;68326;52.124;5.424;2023-05-10T09:19:03;9.02;;;4.60;;
71975;SDS011;68326;52.124;5.424;2023-05-10T09:21:30;9.25;;;4.30;;
71975;SDS011;68326;52.124;5.424;2023-05-10T09:23:57;10.47;;;4.57;;
71975;SDS011;68326;52.124;5.424;2023-05-10T09:26:29;9.43;;;4.10;;
71975;SDS011;68326;52.124;5.424;2023-05-10T09:28:56;9.18;;;4.50;;
71975;SDS011;68326;52.124;5.424;2023-05-10T09:31:23;8.20;;;4.15;;
71975;SDS011;68326;52.124;5.424;2023-05-10T09:33:53;10.95;;;5.05;;
71975;SDS011;68326;52.124;5.424;2023-05-10T09:36:19;7.00;;;3.60;;
71975;SDS011;68326;52.124;5.424;2023-05-10T09:38:46;8.23;;;4.10;;
71975;SDS011;68326;52.124;5.424;2023-05-10T09:41:21;8.13;;;3.47;;
71975;SDS011;68326;52.124;5.424;2023-05-10T09:43:49;7.97;;;4.20;;
71975;SDS011;68326;52.124;5.424;2023-05-10T09:46:16;6.00;;;3.13;;
71975;SDS011;68326;52.124;5.424;2023-05-10T09:48:43;7.87;;;3.10;;
71975;SDS011;68326;52.124;5.424;2023-05-10T09:51:23;6.63;;;2.95;;
71975;SDS011;68326;52.124;5.424;2023-05-10T09:54:12;5.63;;;3.03;;
71975;SDS011;68326;52.124;5.424;2023-05-10T09:56:39;5.20;;;3.00;;
71975;SDS011;68326;52.124;5.424;2023-05-10T09:59:10;5.80;;;2.58;;
71975;SDS011;68326;52.124;5.424;2023-05-10T10:01:38;5.80;;;2.80;;
71975;SDS011;68326;52.124;5.424;2023-05-10T10:04:06;6.03;;;3.00;;
71975;SDS011;68326;52.124;5.424;2023-05-10T10:06:37;4.60;;;2.47;;
71975;SDS011;68326;52.124;5.424;2023-05-10T10:09:05;4.93;;;2.70;;
71975;SDS011;68326;52.124;5.424;2023-05-10T10:11:34;4.47;;;2.67;;
71975;SDS011;68326;52.124;5.424;2023-05-10T10:14:04;6.30;;;2.77;;
71975;SDS011;68326;52.124;5.424;2023-05-10T10:16:31;5.45;;;2.67;;
71975;SDS011;68326;52.124;5.424;2023-05-10T10:18:58;5.25;;;2.70;;
71975;SDS011;68326;52.124;5.424;2023-05-10T10:21:25;6.70;;;3.30;;
71975;SDS011;68326;52.124;5.424;2023-05-10T10:23:52;5.38;;;2.80;;
71975;SDS011;68326;52.124;5.424;2023-05-10T10:26:19;6.53;;;3.27;;
71975;SDS011;68326;52.124;5.424;2023-05-10T10:32:09;6.55;;;3.08;;
71975;SDS011;68326;52.124;5.424;2023-05-10T10:34:46;7.95;;;3.67;;
71975;SDS011;68326;52.124;5.424;2023-05-10T10:37:13;7.15;;;3.42;;
71975;SDS011;68326;52.124;5.424;2023-05-10T10:39:40;8.77;;;4.03;;
71975;SDS011;68326;52.124;5.424;2023-05-10T10:42:06;7.72;;;3.92;;
71975;SDS011;68326;52.124;5.424;2023-05-10T10:49:52;9.48;;;3.60;;
71975;SDS011;68326;52.124;5.424;2023-05-10T10:55:09;5.78;;;3.15;;
71975;SDS011;68326;52.124;5.424;2023-05-10T11:00:18;5.53;;;3.28;;
71975;SDS011;68326;52.124;5.424;2023-05-10T11:03:04;9.50;;;3.50;;
71975;SDS011;68326;52.124;5.424;2023-05-10T11:08:08;7.25;;;3.25;;
71975;SDS011;68326;52.124;5.424;2023-05-10T11:10:35;7.05;;;3.78;;
71975;SDS011;68326;52.124;5.424;2023-05-10T11:13:02;9.25;;;3.42;;
71975;SDS011;68326;52.124;5.424;2023-05-10T11:15:38;9.73;;;3.22;;
71975;SDS011;68326;52.124;5.424;2023-05-10T11:18:18;6.50;;;2.93;;
71975;SDS011;68326;52.124;5.424;2023-05-10T11:20:50;6.18;;;2.88;;
71975;SDS011;68326;52.124;5.424;2023-05-10T11:23:17;6.47;;;2.85;;
71975;SDS011;68326;52.124;5.424;2023-05-10T11:25:45;10.32;;;2.90;;
71975;SDS011;68326;52.124;5.424;2023-05-10T11:28:12;5.72;;;2.42;;
71975;SDS011;68326;52.124;5.424;2023-05-10T11:30:39;7.30;;;3.50;;
71975;SDS011;68326;52.124;5.424;2023-05-10T11:33:07;8.20;;;3.33;;
71975;SDS011;68326;52.124;5.424;2023-05-10T11:35:37;6.53;;;2.90;;
71975;SDS011;68326;52.124;5.424;2023-05-10T11:38:09;6.80;;;2.83;;
71975;SDS011;68326;52.124;5.424;2023-05-10T11:40:36;5.93;;;2.83;;
71975;SDS011;68326;52.124;5.424;2023-05-10T11:43:04;7.23;;;3.17;;
71975;SDS011;68326;52.124;5.424;2023-05-10T11:45:32;7.78;;;3.33;;
71975;SDS011;68326;52.124;5.424;2023-05-10T11:47:59;8.20;;;2.97;;
71975;SDS011;68326;52.124;5.424;2023-05-10T11:50:26;6.20;;;3.08;;
71975;SDS011;68326;52.124;5.424;2023-05-10T11:52:56;4.88;;;2.60;;
71975;SDS011;68326;52.124;5.424;2023-05-10T11:55:23;7.60;;;2.70;;
71975;SDS011;68326;52.124;5.424;2023-05-10T11:57:53;5.20;;;2.30;;
71975;SDS011;68326;52.124;5.424;2023-05-10T12:00:20;6.28;;;2.40;;
71975;SDS011;68326;52.124;5.424;2023-05-10T12:02:48;5.00;;;2.28;;
71975;SDS011;68326;52.124;5.424;2023-05-10T12:05:15;5.70;;;2.50;;
71975;SDS011;68326;52.124;5.424;2023-05-10T12:07:42;4.50;;;1.73;;
71975;SDS011;68326;52.124;5.424;2023-05-10T12:10:10;5.68;;;2.47;;
71975;SDS011;68326;52.124;5.424;2023-05-10T12:12:42;5.40;;;2.58;;
71975;SDS011;68326;52.124;5.424;2023-05-10T12:15:20;5.63;;;2.50;;
71975;SDS011;68326;52.124;5.424;2023-05-10T12:17:48;5.88;;;1.80;;
71975;SDS011;68326;52.124;5.424;2023-05-10T12:22:49;3.47;;;1.77;;
71975;SDS011;68326;52.124;5.424;2023-05-10T12:25:17;3.15;;;1.77;;
71975;SDS011;68326;52.124;5.424;2023-05-10T12:27:51;3.22;;;1.75;;
71975;SDS011;68326;52.124;5.424;2023-05-10T12:30:26;6.40;;;1.90;;
71975;SDS011;68326;52.124;5.424;2023-05-10T12:32:59;4.37;;;1.80;;
71975;SDS011;68326;52.124;5.424;2023-05-10T12:35:47;4.10;;;1.80;;
71975;SDS011;68326;52.124;5.424;2023-05-10T12:41:04;4.00;;;1.63;;
71975;SDS011;68326;52.124;5.424;2023-05-10T12:43:33;2.60;;;1.60;;
71975;SDS011;68326;52.124;5.424;2023-05-10T12:46:10;4.13;;;1.50;;
71975;SDS011;68326;52.124;5.424;2023-05-10T12:48:38;7.20;;;2.00;;
71975;SDS011;68326;52.124;5.424;2023-05-10T12:51:05;4.45;;;1.45;;
71975;SDS011;68326;52.124;5.424;2023-05-10T12:53:35;3.40;;;1.50;;
71975;SDS011;68326;52.124;5.424;2023-05-10T12:56:02;3.38;;;1.58;;
71975;SDS011;68326;52.124;5.424;2023-05-10T12:58:29;4.13;;;1.53;;
71975;SDS011;68326;52.124;5.424;2023-05-10T13:01:01;3.20;;;1.27;;
71975;SDS011;68326;52.124;5.424;2023-05-10T13:03:28;4.57;;;1.50;;
71975;SDS011;68326;52.124;5.424;2023-05-10T13:05:54;6.25;;;1.20;;
71975;SDS011;68326;52.124;5.424;2023-05-10T13:08:21;6.88;;;1.48;;
71975;SDS011;68326;52.124;5.424;2023-05-10T13:10:47;2.50;;;1.40;;
71975;SDS011;68326;52.124;5.424;2023-05-10T13:13:14;5.38;;;1.40;;
71975;SDS011;68326;52.124;5.424;2023-05-10T13:15:41;3.70;;;1.50;;
71975;SDS011;68326;52.124;5.424;2023-05-10T13:18:08;5.68;;;2.63;;
71975;SDS011;68326;52.124;5.424;2023-05-10T13:20:34;4.45;;;2.75;;
71975;SDS011;68326;52.124;5.424;2023-05-10T13:23:01;4.93;;;2.60;;
71975;SDS011;68326;52.124;5.424;2023-05-10T13:25:28;4.95;;;2.80;;
71975;SDS011;68326;52.124;5.424;2023-05-10T13:27:55;7.07;;;2.70;;
71975;SDS011;68326;52.124;5.424;2023-05-10T13:30:21;5.72;;;2.95;;
71975;SDS011;68326;52.124;5.424;2023-05-10T13:32:48;7.40;;;3.08;;
71975;SDS011;68326;52.124;5.424;2023-05-10T13:35:14;4.60;;;2.40;;
71975;SDS011;68326;52.124;5.424;2023-05-10T13:37:41;6.82;;;2.35;;
71975;SDS011;68326;52.124;5.424;2023-05-10T13:40:08;5.28;;;2.40;;
71975;SDS011;68326;52.124;5.424;2023-05-10T13:42:34;6.40;;;2.45;;
71975;SDS011;68326;52.124;5.424;2023-05-10T13:45:01;6.25;;;2.42;;
71975;SDS011;68326;52.124;5.424;2023-05-10T13:47:28;5.03;;;2.37;;
71975;SDS011;68326;52.124;5.424;2023-05-10T13:49:54;5.35;;;2.08;;
71975;SDS011;68326;52.124;5.424;2023-05-10T13:52:21;5.32;;;2.35;;
71975;SDS011;68326;52.124;5.424;2023-05-10T13:54:47;7.03;;;2.67;;
71975;SDS011;68326;52.124;5.424;2023-05-10T13:57:14;5.88;;;2.60;;
71975;SDS011;68326;52.124;5.424;2023-05-10T13:59:42;6.57;;;2.70;;
71975;SDS011;68326;52.124;5.424;2023-05-10T14:02:09;10.93;;;3.30;;
71975;SDS011;68326;52.124;5.424;2023-05-10T14:04:35;5.93;;;2.70;;
71975;SDS011;68326;52.124;5.424;2023-05-10T14:07:01;6.60;;;2.97;;
71975;SDS011;68326;52.124;5.424;2023-05-10T14:09:28;7.40;;;2.80;;
71975;SDS011;68326;52.124;5.424;2023-05-10T14:11:54;7.20;;;2.87;;
71975;SDS011;68326;52.124;5.424;2023-05-10T14:14:21;7.65;;;2.72;;
71975;SDS011;68326;52.124;5.424;2023-05-10T14:16:48;7.25;;;2.90;;
71975;SDS011;68326;52.124;5.424;2023-05-10T14:19:15;5.93;;;2.70;;
71975;SDS011;68326;52.124;5.424;2023-05-10T14:21:41;6.72;;;2.67;;
71975;SDS011;68326;52.124;5.424;2023-05-10T14:24:07;6.77;;;3.13;;
71975;SDS011;68326;52.124;5.424;2023-05-10T14:26:34;8.35;;;3.05;;
71975;SDS011;68326;52.124;5.424;2023-05-10T14:29:00;6.80;;;3.38;;
71975;SDS011;68326;52.124;5.424;2023-05-10T14:31:27;8.38;;;3.47;;
71975;SDS011;68326;52.124;5.424;2023-05-10T14:33:56;6.15;;;2.88;;
71975;SDS011;68326;52.124;5.424;2023-05-10T14:36:23;11.03;;;3.43;;
71975;SDS011;68326;52.124;5.424;2023-05-10T14:38:50;7.97;;;3.42;;
71975;SDS011;68326;52.124;5.424;2023-05-10T14:41:17;9.70;;;3.90;;
71975;SDS011;68326;52.124;5.424;2023-05-10T14:43:44;9.27;;;3.97;;
71975;SDS011;68326;52.124;5.424;2023-05-10T14:46:10;9.20;;;3.90;;
71975;SDS011;68326;52.124;5.424;2023-05-10T14:48:37;9.80;;;3.67;;
71975;SDS011;68326;52.124;5.424;2023-05-10T14:51:03;8.18;;;3.50;;
71975;SDS011;68326;52.124;5.424;2023-05-10T14:53:30;7.75;;;3.13;;
71975;SDS011;68326;52.124;5.424;2023-05-10T14:55:56;8.00;;;4.05;;
71975;SDS011;68326;52.124;5.424;2023-05-10T14:58:23;8.25;;;3.65;;
71975;SDS011;68326;52.124;5.424;2023-05-10T15:00:49;8.70;;;3.63;;
71975;SDS011;68326;52.124;5.424;2023-05-10T15:03:16;9.57;;;4.13;;
71975;SDS011;68326;52.124;5.424;2023-05-10T15:05:44;10.25;;;3.85;;
71975;SDS011;68326;52.124;5.424;2023-05-10T15:08:10;9.73;;;4.43;;
71975;SDS011;68326;52.124;5.424;2023-05-10T15:10:38;8.13;;;3.83;;
71975;SDS011;68326;52.124;5.424;2023-05-10T15:13:05;9.70;;;4.40;;
71975;SDS011;68326;52.124;5.424;2023-05-10T15:15:32;7.68;;;3.92;;